sensor_id;sensor_type;location;lat;lon;timestamp;temperature;humidity
70368;DHT22;57789;53.868;10.728;2023-07-20T00:00:29;14.20;99.90
70368;DHT22;57789;53.868;10.728;2023-07-20T00:03:13;14.30;99.90
70368;DHT22;57789;53.868;10.728;2023-07-20T00:05:43;14.30;99.90
70368;DHT22;57789;53.868;10.728;2023-07-20T00:08:08;14.20;99.90
70368;DHT22;57789;53.868;10.728;2023-07-20T00:10:34;14.20;99.90
70368;DHT22;57789;53.868;10.728;2023-07-20T00:12:59;14.20;99.90
70368;DHT22;57789;53.868;10.728;2023-07-20T00:15:25;14.20;99.90
70368;DHT22;57789;53.868;10.728;2023-07-20T00:17:51;14.30;99.90
70368;DHT22;57789;53.868;10.728;2023-07-20T00:20:17;14.30;99.90
70368;DHT22;57789;53.868;10.728;2023-07-20T00:22:43;14.30;99.90
70368;DHT22;57789;53.868;10.728;2023-07-20T00:25:09;14.30;99.90
70368;DHT22;57789;53.868;10.728;2023-07-20T00:27:37;14.40;99.90
70368;DHT22;57789;53.868;10.728;2023-07-20T00:30:04;14.40;99.90
70368;DHT22;57789;53.868;10.728;2023-07-20T00:32:29;14.40;99.90
70368;DHT22;57789;53.868;10.728;2023-07-20T00:34:55;14.30;99.90
70368;DHT22;57789;53.868;10.728;2023-07-20T00:37:21;14.40;99.90
70368;DHT22;57789;53.868;10.728;2023-07-20T00:39:47;14.40;99.90
70368;DHT22;57789;53.868;10.728;2023-07-20T00:42:12;14.40;99.90
70368;DHT22;57789;53.868;10.728;2023-07-20T00:44:38;14.40;99.90
70368;DHT22;57789;53.868;10.728;2023-07-20T00:47:05;14.40;99.90
70368;DHT22;57789;53.868;10.728;2023-07-20T00:49:31;14.50;99.90
70368;DHT22;57789;53.868;10.728;2023-07-20T00:51:58;14.40;99.90
70368;DHT22;57789;53.868;10.728;2023-07-20T00:54:24;14.40;99.90
70368;DHT22;57789;53.868;10.728;2023-07-20T00:56:50;14.40;99.90
70368;DHT22;57789;53.868;10.728;2023-07-20T00:59:17;14.40;99.90
70368;DHT22;57789;53.868;10.728;2023-07-20T01:01:43;14.40;99.90
70368;DHT22;57789;53.868;10.728;2023-07-20T01:04:09;14.40;99.90
70368;DHT22;57789;53.868;10.728;2023-07-20T01:06:57;14.40;99.90
70368;DHT22;57789;53.868;10.728;2023-07-20T01:09:39;14.40;99.90
70368;DHT22;57789;53.868;10.728;2023-07-20T01:14:54;14.40;99.90
70368;DHT22;57789;53.868;10.728;2023-07-20T01:17:19;14.50;99.90
70368;DHT22;57789;53.868;10.728;2023-07-20T01:19:45;14.40;99.90
70368;DHT22;57789;53.868;10.728;2023-07-20T01:33:47;14.30;99.90
70368;DHT22;57789;53.868;10.728;2023-07-20T01:36:14;14.40;99.90
70368;DHT22;57789;53.868;10.728;2023-07-20T01:38:42;14.40;99.90
70368;DHT22;57789;53.868;10.728;2023-07-20T01:41:08;14.30;99.90
70368;DHT22;57789;53.868;10.728;2023-07-20T01:43:34;14.30;99.90
70368;DHT22;57789;53.868;10.728;2023-07-20T01:46:00;14.20;99.90
70368;DHT22;57789;53.868;10.728;2023-07-20T01:48:25;14.20;99.90
70368;DHT22;57789;53.868;10.728;2023-07-20T01:50:51;14.20;99.90
70368;DHT22;57789;53.868;10.728;2023-07-20T01:53:17;14.30;99.90
70368;DHT22;57789;53.868;10.728;2023-07-20T01:55:43;14.30;99.90
70368;DHT22;57789;53.868;10.728;2023-07-20T01:58:08;14.30;99.90
70368;DHT22;57789;53.868;10.728;2023-07-20T02:00:36;14.20;99.90
70368;DHT22;57789;53.868;10.728;2023-07-20T02:03:02;14.20;99.90
70368;DHT22;57789;53.868;10.728;2023-07-20T02:05:27;14.20;99.90
70368;DHT22;57789;53.868;10.728;2023-07-20T02:07:53;14.30;99.90
70368;DHT22;57789;53.868;10.728;2023-07-20T02:10:19;14.30;99.90
70368;DHT22;57789;53.868;10.728;2023-07-20T02:12:46;14.30;99.90
70368;DHT22;57789;53.868;10.728;2023-07-20T02:15:13;14.30;99.90
70368;DHT22;57789;53.868;10.728;2023-07-20T02:17:42;14.20;99.90
70368;DHT22;57789;53.868;10.728;2023-07-20T02:20:09;14.20;99.90
70368;DHT22;57789;53.868;10.728;2023-07-20T02:22:36;14.20;99.90
70368;DHT22;57789;53.868;10.728;2023-07-20T02:25:04;14.10;99.90
70368;DHT22;57789;53.868;10.728;2023-07-20T02:27:30;14.10;99.90
70368;DHT22;57789;53.868;10.728;2023-07-20T02:29:56;14.10;99.90
70368;DHT22;57789;53.868;10.728;2023-07-20T02:32:22;14.10;99.90
70368;DHT22;57789;53.868;10.728;2023-07-20T02:34:47;14.10;99.90
70368;DHT22;57789;53.868;10.728;2023-07-20T02:37:13;14.20;99.90
70368;DHT22;57789;53.868;10.728;2023-07-20T02:39:39;14.20;99.90
70368;DHT22;57789;53.868;10.728;2023-07-20T02:42:05;14.20;99.90
70368;DHT22;57789;53.868;10.728;2023-07-20T02:44:31;14.20;99.90
70368;DHT22;57789;53.868;10.728;2023-07-20T02:46:57;14.10;99.90
70368;DHT22;57789;53.868;10.728;2023-07-20T02:49:23;14.10;99.90
70368;DHT22;57789;53.868;10.728;2023-07-20T02:51:48;14.10;99.90
70368;DHT22;57789;53.868;10.728;2023-07-20T02:54:14;14.10;99.90
70368;DHT22;57789;53.868;10.728;2023-07-20T02:56:40;14.10;99.90
70368;DHT22;57789;53.868;10.728;2023-07-20T02:59:06;14.00;99.90
70368;DHT22;57789;53.868;10.728;2023-07-20T03:01:31;14.00;99.90
70368;DHT22;57789;53.868;10.728;2023-07-20T03:03:57;14.00;99.90
70368;DHT22;57789;53.868;10.728;2023-07-20T03:06:23;14.10;99.90
70368;DHT22;57789;53.868;10.728;2023-07-20T03:08:48;14.10;99.90
70368;DHT22;57789;53.868;10.728;2023-07-20T03:11:19;14.20;99.90
70368;DHT22;57789;53.868;10.728;2023-07-20T03:13:46;14.20;99.90
70368;DHT22;57789;53.868;10.728;2023-07-20T03:16:13;14.20;99.90
70368;DHT22;57789;53.868;10.728;2023-07-20T03:18:44;14.10;99.90
70368;DHT22;57789;53.868;10.728;2023-07-20T03:21:11;14.20;99.90
70368;DHT22;57789;53.868;10.728;2023-07-20T03:23:37;14.30;99.90
70368;DHT22;57789;53.868;10.728;2023-07-20T03:26:03;14.30;99.90
70368;DHT22;57789;53.868;10.728;2023-07-20T03:28:29;14.20;99.90
70368;DHT22;57789;53.868;10.728;2023-07-20T03:30:58;14.20;99.90
70368;DHT22;57789;53.868;10.728;2023-07-20T03:33:26;14.20;99.90
70368;DHT22;57789;53.868;10.728;2023-07-20T03:35:52;14.20;99.90
70368;DHT22;57789;53.868;10.728;2023-07-20T03:38:18;14.10;99.90
70368;DHT22;57789;53.868;10.728;2023-07-20T03:40:54;14.00;99.90
70368;DHT22;57789;53.868;10.728;2023-07-20T03:43:20;14.10;99.90
70368;DHT22;57789;53.868;10.728;2023-07-20T03:45:46;14.10;99.90
70368;DHT22;57789;53.868;10.728;2023-07-20T03:48:20;14.10;99.90
70368;DHT22;57789;53.868;10.728;2023-07-20T03:50:48;14.10;99.90
70368;DHT22;57789;53.868;10.728;2023-07-20T03:53:15;14.10;99.90
70368;DHT22;57789;53.868;10.728;2023-07-20T03:55:47;14.00;99.90
70368;DHT22;57789;53.868;10.728;2023-07-20T03:58:14;14.00;99.90
70368;DHT22;57789;53.868;10.728;2023-07-20T04:00:42;14.00;99.90
70368;DHT22;57789;53.868;10.728;2023-07-20T04:03:08;14.00;99.90
70368;DHT22;57789;53.868;10.728;2023-07-20T04:05:34;14.00;99.90
70368;DHT22;57789;53.868;10.728;2023-07-20T04:07:59;14.10;99.90
70368;DHT22;57789;53.868;10.728;2023-07-20T04:10:25;14.10;99.90
70368;DHT22;57789;53.868;10.728;2023-07-20T04:12:51;14.10;99.90
70368;DHT22;57789;53.868;10.728;2023-07-20T04:15:16;14.10;99.90
70368;DHT22;57789;53.868;10.728;2023-07-20T04:17:42;14.20;99.90
70368;DHT22;57789;53.868;10.728;2023-07-20T04:20:08;14.20;99.90
70368;DHT22;57789;53.868;10.728;2023-07-20T04:22:34;14.30;99.90
70368;DHT22;57789;53.868;10.728;2023-07-20T04:24:59;14.30;99.90
70368;DHT22;57789;53.868;10.728;2023-07-20T04:27:25;14.30;99.90
70368;DHT22;57789;53.868;10.728;2023-07-20T04:29:51;14.30;99.90
70368;DHT22;57789;53.868;10.728;2023-07-20T04:32:17;14.30;99.90
70368;DHT22;57789;53.868;10.728;2023-07-20T04:34:43;14.30;99.90
70368;DHT22;57789;53.868;10.728;2023-07-20T04:37:09;14.40;99.90
70368;DHT22;57789;53.868;10.728;2023-07-20T04:39:34;14.50;99.90
70368;DHT22;57789;53.868;10.728;2023-07-20T04:42:00;14.50;99.90
70368;DHT22;57789;53.868;10.728;2023-07-20T04:44:26;14.30;99.90
70368;DHT22;57789;53.868;10.728;2023-07-20T04:46:51;14.30;99.90
70368;DHT22;57789;53.868;10.728;2023-07-20T04:49:17;14.30;99.90
70368;DHT22;57789;53.868;10.728;2023-07-20T04:51:43;14.30;99.90
70368;DHT22;57789;53.868;10.728;2023-07-20T04:54:08;14.30;99.90
70368;DHT22;57789;53.868;10.728;2023-07-20T04:56:34;14.30;99.90
70368;DHT22;57789;53.868;10.728;2023-07-20T04:59:00;14.20;99.90
70368;DHT22;57789;53.868;10.728;2023-07-20T05:01:25;14.30;99.90
70368;DHT22;57789;53.868;10.728;2023-07-20T05:03:52;14.30;99.90
70368;DHT22;57789;53.868;10.728;2023-07-20T05:06:18;14.30;99.90
70368;DHT22;57789;53.868;10.728;2023-07-20T05:08:44;14.40;99.90
70368;DHT22;57789;53.868;10.728;2023-07-20T05:11:10;14.40;99.90
70368;DHT22;57789;53.868;10.728;2023-07-20T05:13:36;14.40;99.90
70368;DHT22;57789;53.868;10.728;2023-07-20T05:16:02;14.50;99.90
70368;DHT22;57789;53.868;10.728;2023-07-20T05:18:28;14.60;99.90
70368;DHT22;57789;53.868;10.728;2023-07-20T05:20:53;14.60;99.90
70368;DHT22;57789;53.868;10.728;2023-07-20T05:23:21;14.60;99.90
70368;DHT22;57789;53.868;10.728;2023-07-20T05:25:53;14.70;99.90
70368;DHT22;57789;53.868;10.728;2023-07-20T05:28:19;14.70;99.90
70368;DHT22;57789;53.868;10.728;2023-07-20T05:30:45;14.70;99.90
70368;DHT22;57789;53.868;10.728;2023-07-20T05:33:10;14.80;99.90
70368;DHT22;57789;53.868;10.728;2023-07-20T05:35:36;14.90;99.90
70368;DHT22;57789;53.868;10.728;2023-07-20T05:38:02;14.90;99.90
70368;DHT22;57789;53.868;10.728;2023-07-20T05:40:30;15.00;99.90
70368;DHT22;57789;53.868;10.728;2023-07-20T05:42:56;15.00;99.90
70368;DHT22;57789;53.868;10.728;2023-07-20T05:45:22;15.00;99.90
70368;DHT22;57789;53.868;10.728;2023-07-20T05:47:48;15.00;99.90
70368;DHT22;57789;53.868;10.728;2023-07-20T05:50:14;15.00;99.90
70368;DHT22;57789;53.868;10.728;2023-07-20T05:52:40;15.10;99.90
70368;DHT22;57789;53.868;10.728;2023-07-20T05:55:06;15.10;99.90
70368;DHT22;57789;53.868;10.728;2023-07-20T05:57:32;15.20;99.90
70368;DHT22;57789;53.868;10.728;2023-07-20T05:59:57;15.20;99.90
70368;DHT22;57789;53.868;10.728;2023-07-20T06:02:23;15.30;99.90
70368;DHT22;57789;53.868;10.728;2023-07-20T06:04:49;15.40;99.90
70368;DHT22;57789;53.868;10.728;2023-07-20T06:07:15;15.40;99.90
70368;DHT22;57789;53.868;10.728;2023-07-20T06:09:40;15.40;99.90
70368;DHT22;57789;53.868;10.728;2023-07-20T06:12:07;15.40;99.90
70368;DHT22;57789;53.868;10.728;2023-07-20T06:14:34;15.50;99.90
70368;DHT22;57789;53.868;10.728;2023-07-20T06:17:00;15.60;99.90
70368;DHT22;57789;53.868;10.728;2023-07-20T06:19:26;15.60;99.90
70368;DHT22;57789;53.868;10.728;2023-07-20T06:21:52;15.70;99.90
70368;DHT22;57789;53.868;10.728;2023-07-20T06:24:18;15.80;99.90
70368;DHT22;57789;53.868;10.728;2023-07-20T06:26:44;15.80;99.90
70368;DHT22;57789;53.868;10.728;2023-07-20T06:29:09;15.90;99.90
70368;DHT22;57789;53.868;10.728;2023-07-20T06:31:36;16.10;99.90
70368;DHT22;57789;53.868;10.728;2023-07-20T06:34:02;16.20;99.90
70368;DHT22;57789;53.868;10.728;2023-07-20T06:36:28;16.30;99.90
70368;DHT22;57789;53.868;10.728;2023-07-20T06:38:55;16.50;99.90
70368;DHT22;57789;53.868;10.728;2023-07-20T06:41:20;16.60;99.90
70368;DHT22;57789;53.868;10.728;2023-07-20T06:43:46;16.70;99.90
70368;DHT22;57789;53.868;10.728;2023-07-20T06:46:12;16.70;99.90
70368;DHT22;57789;53.868;10.728;2023-07-20T06:48:38;16.80;99.90
70368;DHT22;57789;53.868;10.728;2023-07-20T06:51:04;16.80;99.90
70368;DHT22;57789;53.868;10.728;2023-07-20T06:53:30;16.70;99.90
70368;DHT22;57789;53.868;10.728;2023-07-20T06:55:56;16.70;99.90
70368;DHT22;57789;53.868;10.728;2023-07-20T06:58:24;16.70;99.90
70368;DHT22;57789;53.868;10.728;2023-07-20T07:00:51;16.60;99.90
70368;DHT22;57789;53.868;10.728;2023-07-20T07:03:17;16.60;99.90
70368;DHT22;57789;53.868;10.728;2023-07-20T07:05:43;16.60;99.90
70368;DHT22;57789;53.868;10.728;2023-07-20T07:08:10;16.70;99.90
70368;DHT22;57789;53.868;10.728;2023-07-20T07:10:36;16.70;99.90
70368;DHT22;57789;53.868;10.728;2023-07-20T07:13:02;16.80;99.90
70368;DHT22;57789;53.868;10.728;2023-07-20T07:15:29;16.90;99.90
70368;DHT22;57789;53.868;10.728;2023-07-20T07:17:54;17.10;99.90
70368;DHT22;57789;53.868;10.728;2023-07-20T07:20:21;17.30;99.90
70368;DHT22;57789;53.868;10.728;2023-07-20T07:22:47;17.30;99.90
70368;DHT22;57789;53.868;10.728;2023-07-20T07:25:13;17.10;99.90
70368;DHT22;57789;53.868;10.728;2023-07-20T07:27:38;16.90;99.90
70368;DHT22;57789;53.868;10.728;2023-07-20T07:30:04;16.70;99.90
70368;DHT22;57789;53.868;10.728;2023-07-20T07:32:31;16.80;99.90
70368;DHT22;57789;53.868;10.728;2023-07-20T07:34:56;17.00;99.90
70368;DHT22;57789;53.868;10.728;2023-07-20T07:37:25;17.30;99.90
70368;DHT22;57789;53.868;10.728;2023-07-20T07:39:51;17.30;99.90
70368;DHT22;57789;53.868;10.728;2023-07-20T07:42:16;17.30;99.90
70368;DHT22;57789;53.868;10.728;2023-07-20T07:44:44;17.40;99.90
70368;DHT22;57789;53.868;10.728;2023-07-20T07:47:09;17.30;99.90
70368;DHT22;57789;53.868;10.728;2023-07-20T07:49:35;17.00;99.90
70368;DHT22;57789;53.868;10.728;2023-07-20T07:52:01;16.90;99.90
70368;DHT22;57789;53.868;10.728;2023-07-20T07:54:28;16.70;99.90
70368;DHT22;57789;53.868;10.728;2023-07-20T07:56:54;16.70;99.90
70368;DHT22;57789;53.868;10.728;2023-07-20T07:59:19;16.70;99.90
70368;DHT22;57789;53.868;10.728;2023-07-20T08:01:45;16.80;99.90
70368;DHT22;57789;53.868;10.728;2023-07-20T08:04:10;17.10;99.90
70368;DHT22;57789;53.868;10.728;2023-07-20T08:06:36;17.30;99.90
70368;DHT22;57789;53.868;10.728;2023-07-20T08:09:02;17.40;99.90
70368;DHT22;57789;53.868;10.728;2023-07-20T08:11:28;17.50;99.90
70368;DHT22;57789;53.868;10.728;2023-07-20T08:13:56;17.60;99.90
70368;DHT22;57789;53.868;10.728;2023-07-20T08:16:22;17.50;99.90
70368;DHT22;57789;53.868;10.728;2023-07-20T08:18:47;17.30;99.90
70368;DHT22;57789;53.868;10.728;2023-07-20T08:21:13;17.20;99.90
70368;DHT22;57789;53.868;10.728;2023-07-20T08:23:39;17.20;99.90
70368;DHT22;57789;53.868;10.728;2023-07-20T08:26:05;17.20;99.90
70368;DHT22;57789;53.868;10.728;2023-07-20T08:28:31;17.30;99.90
70368;DHT22;57789;53.868;10.728;2023-07-20T08:30:57;17.40;99.90
70368;DHT22;57789;53.868;10.728;2023-07-20T08:33:23;17.50;99.90
70368;DHT22;57789;53.868;10.728;2023-07-20T08:35:49;17.70;99.90
70368;DHT22;57789;53.868;10.728;2023-07-20T08:38:15;17.90;99.90
70368;DHT22;57789;53.868;10.728;2023-07-20T08:40:42;18.00;99.90
70368;DHT22;57789;53.868;10.728;2023-07-20T08:43:12;17.90;99.90
70368;DHT22;57789;53.868;10.728;2023-07-20T08:45:40;17.90;99.90
70368;DHT22;57789;53.868;10.728;2023-07-20T08:48:07;17.90;99.90
70368;DHT22;57789;53.868;10.728;2023-07-20T08:50:34;17.90;99.90
70368;DHT22;57789;53.868;10.728;2023-07-20T08:53:01;18.10;99.90
70368;DHT22;57789;53.868;10.728;2023-07-20T08:55:27;18.20;99.90
70368;DHT22;57789;53.868;10.728;2023-07-20T08:57:58;18.30;99.90
70368;DHT22;57789;53.868;10.728;2023-07-20T09:00:25;18.40;99.90
70368;DHT22;57789;53.868;10.728;2023-07-20T09:02:55;18.50;99.90
70368;DHT22;57789;53.868;10.728;2023-07-20T09:05:24;18.60;99.90
70368;DHT22;57789;53.868;10.728;2023-07-20T09:07:51;18.80;99.90
70368;DHT22;57789;53.868;10.728;2023-07-20T09:10:23;18.60;99.90
70368;DHT22;57789;53.868;10.728;2023-07-20T09:12:49;18.60;99.90
70368;DHT22;57789;53.868;10.728;2023-07-20T09:15:15;18.00;99.90
70368;DHT22;57789;53.868;10.728;2023-07-20T09:17:49;17.20;99.90
70368;DHT22;57789;53.868;10.728;2023-07-20T09:20:16;16.70;99.90
70368;DHT22;57789;53.868;10.728;2023-07-20T09:22:43;16.20;99.90
70368;DHT22;57789;53.868;10.728;2023-07-20T09:25:17;16.00;99.90
70368;DHT22;57789;53.868;10.728;2023-07-20T09:27:47;16.10;99.90
70368;DHT22;57789;53.868;10.728;2023-07-20T09:30:15;16.50;99.90
70368;DHT22;57789;53.868;10.728;2023-07-20T09:32:48;16.90;99.90
70368;DHT22;57789;53.868;10.728;2023-07-20T09:35:17;17.30;99.90
70368;DHT22;57789;53.868;10.728;2023-07-20T09:37:59;17.30;99.90
70368;DHT22;57789;53.868;10.728;2023-07-20T09:40:29;17.40;99.90
70368;DHT22;57789;53.868;10.728;2023-07-20T09:42:55;17.60;99.90
70368;DHT22;57789;53.868;10.728;2023-07-20T09:45:29;18.10;99.90
70368;DHT22;57789;53.868;10.728;2023-07-20T09:48:04;18.50;99.90
70368;DHT22;57789;53.868;10.728;2023-07-20T09:50:31;18.50;99.90
70368;DHT22;57789;53.868;10.728;2023-07-20T09:52:56;18.30;99.90
70368;DHT22;57789;53.868;10.728;2023-07-20T09:55:23;17.60;99.90
70368;DHT22;57789;53.868;10.728;2023-07-20T09:57:49;16.60;99.90
70368;DHT22;57789;53.868;10.728;2023-07-20T10:00:17;15.90;99.90
70368;DHT22;57789;53.868;10.728;2023-07-20T10:02:44;15.50;99.90
70368;DHT22;57789;53.868;10.728;2023-07-20T10:05:14;15.30;99.90
70368;DHT22;57789;53.868;10.728;2023-07-20T10:07:47;15.30;99.90
70368;DHT22;57789;53.868;10.728;2023-07-20T10:10:15;15.50;99.90
70368;DHT22;57789;53.868;10.728;2023-07-20T10:12:43;15.90;99.90
70368;DHT22;57789;53.868;10.728;2023-07-20T10:15:50;16.30;99.90
70368;DHT22;57789;53.868;10.728;2023-07-20T10:18:19;16.60;99.90
70368;DHT22;57789;53.868;10.728;2023-07-20T10:20:49;16.70;99.90
70368;DHT22;57789;53.868;10.728;2023-07-20T10:23:17;16.80;99.90
70368;DHT22;57789;53.868;10.728;2023-07-20T10:25:43;16.80;99.90
70368;DHT22;57789;53.868;10.728;2023-07-20T10:28:10;16.80;99.90
70368;DHT22;57789;53.868;10.728;2023-07-20T10:30:37;16.80;99.90
70368;DHT22;57789;53.868;10.728;2023-07-20T10:33:04;16.70;99.90
70368;DHT22;57789;53.868;10.728;2023-07-20T10:35:31;16.60;99.90
70368;DHT22;57789;53.868;10.728;2023-07-20T10:38:15;16.50;99.90
70368;DHT22;57789;53.868;10.728;2023-07-20T10:40:41;16.70;99.90
70368;DHT22;57789;53.868;10.728;2023-07-20T10:43:08;16.90;99.90
70368;DHT22;57789;53.868;10.728;2023-07-20T10:48:21;17.40;99.90
70368;DHT22;57789;53.868;10.728;2023-07-20T10:51:12;17.80;99.90
70368;DHT22;57789;53.868;10.728;2023-07-20T10:53:42;17.80;99.90
70368;DHT22;57789;53.868;10.728;2023-07-20T10:56:15;17.70;99.90
70368;DHT22;57789;53.868;10.728;2023-07-20T10:58:41;17.60;99.90
70368;DHT22;57789;53.868;10.728;2023-07-20T11:01:08;17.40;99.90
70368;DHT22;57789;53.868;10.728;2023-07-20T11:03:36;17.00;99.90
70368;DHT22;57789;53.868;10.728;2023-07-20T11:08:55;15.90;99.90
70368;DHT22;57789;53.868;10.728;2023-07-20T11:11:22;15.60;99.90
70368;DHT22;57789;53.868;10.728;2023-07-20T11:14:08;15.50;99.90
70368;DHT22;57789;53.868;10.728;2023-07-20T11:16:42;15.40;99.90
70368;DHT22;57789;53.868;10.728;2023-07-20T11:21:44;15.90;99.90
70368;DHT22;57789;53.868;10.728;2023-07-20T11:24:10;16.30;99.90
70368;DHT22;57789;53.868;10.728;2023-07-20T11:26:48;16.70;99.90
70368;DHT22;57789;53.868;10.728;2023-07-20T11:29:15;17.10;99.90
70368;DHT22;57789;53.868;10.728;2023-07-20T11:31:42;17.30;99.90
70368;DHT22;57789;53.868;10.728;2023-07-20T11:34:11;17.50;99.90
70368;DHT22;57789;53.868;10.728;2023-07-20T11:36:41;17.50;99.90
70368;DHT22;57789;53.868;10.728;2023-07-20T11:39:11;17.60;99.90
70368;DHT22;57789;53.868;10.728;2023-07-20T11:41:37;17.50;99.90
70368;DHT22;57789;53.868;10.728;2023-07-20T11:44:04;17.30;99.90
70368;DHT22;57789;53.868;10.728;2023-07-20T11:46:32;17.10;99.90
70368;DHT22;57789;53.868;10.728;2023-07-20T11:49:01;16.80;99.90
70368;DHT22;57789;53.868;10.728;2023-07-20T11:51:28;16.70;99.90
70368;DHT22;57789;53.868;10.728;2023-07-20T11:53:54;16.70;99.90
70368;DHT22;57789;53.868;10.728;2023-07-20T11:56:21;16.60;99.90
70368;DHT22;57789;53.868;10.728;2023-07-20T11:58:48;16.60;99.90
70368;DHT22;57789;53.868;10.728;2023-07-20T12:01:14;16.90;99.90
70368;DHT22;57789;53.868;10.728;2023-07-20T12:03:41;17.10;99.90
70368;DHT22;57789;53.868;10.728;2023-07-20T12:06:08;17.30;99.90
70368;DHT22;57789;53.868;10.728;2023-07-20T12:08:34;17.60;99.90
70368;DHT22;57789;53.868;10.728;2023-07-20T12:11:00;18.10;99.90
70368;DHT22;57789;53.868;10.728;2023-07-20T12:13:39;18.80;99.90
70368;DHT22;57789;53.868;10.728;2023-07-20T12:16:13;18.90;99.90
70368;DHT22;57789;53.868;10.728;2023-07-20T12:18:40;18.90;99.90
70368;DHT22;57789;53.868;10.728;2023-07-20T12:21:06;18.90;99.90
70368;DHT22;57789;53.868;10.728;2023-07-20T12:23:40;18.80;99.90
70368;DHT22;57789;53.868;10.728;2023-07-20T12:26:08;19.10;99.90
70368;DHT22;57789;53.868;10.728;2023-07-20T12:28:39;19.50;99.90
70368;DHT22;57789;53.868;10.728;2023-07-20T12:31:09;20.20;99.90
70368;DHT22;57789;53.868;10.728;2023-07-20T12:33:39;21.20;99.90
70368;DHT22;57789;53.868;10.728;2023-07-20T12:36:05;21.50;99.90
70368;DHT22;57789;53.868;10.728;2023-07-20T12:38:31;21.70;99.90
70368;DHT22;57789;53.868;10.728;2023-07-20T12:40:57;22.00;99.90
70368;DHT22;57789;53.868;10.728;2023-07-20T12:43:24;21.40;99.90
70368;DHT22;57789;53.868;10.728;2023-07-20T12:45:49;20.70;99.90
70368;DHT22;57789;53.868;10.728;2023-07-20T12:48:15;20.60;99.90
70368;DHT22;57789;53.868;10.728;2023-07-20T12:50:41;20.60;99.90
70368;DHT22;57789;53.868;10.728;2023-07-20T12:53:07;20.80;99.90
70368;DHT22;57789;53.868;10.728;2023-07-20T12:55:33;21.10;99.90
70368;DHT22;57789;53.868;10.728;2023-07-20T12:57:59;21.30;99.90
70368;DHT22;57789;53.868;10.728;2023-07-20T13:00:24;21.70;99.90
70368;DHT22;57789;53.868;10.728;2023-07-20T13:02:53;21.70;99.90
70368;DHT22;57789;53.868;10.728;2023-07-20T13:05:18;21.50;99.90
70368;DHT22;57789;53.868;10.728;2023-07-20T13:07:45;20.90;99.90
70368;DHT22;57789;53.868;10.728;2023-07-20T13:10:11;20.40;99.90
70368;DHT22;57789;53.868;10.728;2023-07-20T13:12:37;20.20;99.90
70368;DHT22;57789;53.868;10.728;2023-07-20T13:15:05;20.00;99.90
70368;DHT22;57789;53.868;10.728;2023-07-20T13:17:32;19.80;99.90
70368;DHT22;57789;53.868;10.728;2023-07-20T13:19:58;19.40;99.90
70368;DHT22;57789;53.868;10.728;2023-07-20T13:22:24;19.10;99.90
70368;DHT22;57789;53.868;10.728;2023-07-20T13:24:50;19.00;99.90
70368;DHT22;57789;53.868;10.728;2023-07-20T13:27:19;18.80;99.90
70368;DHT22;57789;53.868;10.728;2023-07-20T13:29:45;18.90;99.90
70368;DHT22;57789;53.868;10.728;2023-07-20T13:32:13;18.70;99.90
70368;DHT22;57789;53.868;10.728;2023-07-20T13:34:40;18.20;99.90
70368;DHT22;57789;53.868;10.728;2023-07-20T13:37:06;17.90;99.90
70368;DHT22;57789;53.868;10.728;2023-07-20T13:39:32;17.70;99.90
70368;DHT22;57789;53.868;10.728;2023-07-20T13:41:57;17.80;99.90
70368;DHT22;57789;53.868;10.728;2023-07-20T13:44:23;17.80;99.90
70368;DHT22;57789;53.868;10.728;2023-07-20T13:46:49;18.10;99.90
70368;DHT22;57789;53.868;10.728;2023-07-20T13:49:15;18.10;99.90
70368;DHT22;57789;53.868;10.728;2023-07-20T13:51:42;18.10;99.90
70368;DHT22;57789;53.868;10.728;2023-07-20T13:54:08;18.20;99.90
70368;DHT22;57789;53.868;10.728;2023-07-20T13:56:33;18.40;99.90
70368;DHT22;57789;53.868;10.728;2023-07-20T13:58:59;18.90;99.90
70368;DHT22;57789;53.868;10.728;2023-07-20T14:01:25;18.90;99.90
70368;DHT22;57789;53.868;10.728;2023-07-20T14:03:51;19.10;99.90
70368;DHT22;57789;53.868;10.728;2023-07-20T14:06:17;19.00;99.90
70368;DHT22;57789;53.868;10.728;2023-07-20T14:08:43;18.50;99.90
70368;DHT22;57789;53.868;10.728;2023-07-20T14:11:12;18.40;99.90
70368;DHT22;57789;53.868;10.728;2023-07-20T14:13:38;18.10;99.90
70368;DHT22;57789;53.868;10.728;2023-07-20T14:16:04;17.80;99.90
70368;DHT22;57789;53.868;10.728;2023-07-20T14:18:30;17.30;99.90
70368;DHT22;57789;53.868;10.728;2023-07-20T14:20:56;16.90;99.90
70368;DHT22;57789;53.868;10.728;2023-07-20T14:23:21;16.70;99.90
70368;DHT22;57789;53.868;10.728;2023-07-20T14:25:48;16.70;99.90
70368;DHT22;57789;53.868;10.728;2023-07-20T14:28:14;16.70;99.90
70368;DHT22;57789;53.868;10.728;2023-07-20T14:30:40;16.80;99.90
70368;DHT22;57789;53.868;10.728;2023-07-20T14:33:06;16.70;99.90
70368;DHT22;57789;53.868;10.728;2023-07-20T14:35:33;16.70;99.90
70368;DHT22;57789;53.868;10.728;2023-07-20T14:37:59;16.90;99.90
70368;DHT22;57789;53.868;10.728;2023-07-20T14:40:25;17.10;99.90
70368;DHT22;57789;53.868;10.728;2023-07-20T14:42:51;17.30;99.90
70368;DHT22;57789;53.868;10.728;2023-07-20T14:45:18;17.50;99.90
70368;DHT22;57789;53.868;10.728;2023-07-20T14:47:43;17.90;99.90
70368;DHT22;57789;53.868;10.728;2023-07-20T14:50:11;18.10;99.90
70368;DHT22;57789;53.868;10.728;2023-07-20T14:52:37;18.30;99.90
70368;DHT22;57789;53.868;10.728;2023-07-20T14:55:03;18.70;99.90
70368;DHT22;57789;53.868;10.728;2023-07-20T14:57:30;19.00;99.90
70368;DHT22;57789;53.868;10.728;2023-07-20T14:59:55;18.70;99.90
70368;DHT22;57789;53.868;10.728;2023-07-20T15:02:21;18.80;99.90
70368;DHT22;57789;53.868;10.728;2023-07-20T15:04:51;19.10;99.90
70368;DHT22;57789;53.868;10.728;2023-07-20T15:07:20;19.10;99.90
70368;DHT22;57789;53.868;10.728;2023-07-20T15:09:47;19.30;99.90
70368;DHT22;57789;53.868;10.728;2023-07-20T15:12:13;19.70;99.90
70368;DHT22;57789;53.868;10.728;2023-07-20T15:14:43;19.80;99.90
70368;DHT22;57789;53.868;10.728;2023-07-20T15:17:10;20.20;99.90
70368;DHT22;57789;53.868;10.728;2023-07-20T15:19:36;19.90;99.90
70368;DHT22;57789;53.868;10.728;2023-07-20T15:22:04;20.10;99.90
70368;DHT22;57789;53.868;10.728;2023-07-20T15:24:31;20.80;99.90
70368;DHT22;57789;53.868;10.728;2023-07-20T15:26:57;21.50;99.90
70368;DHT22;57789;53.868;10.728;2023-07-20T15:29:23;21.30;99.90
70368;DHT22;57789;53.868;10.728;2023-07-20T15:31:49;20.70;99.90
70368;DHT22;57789;53.868;10.728;2023-07-20T15:34:15;20.00;99.90
70368;DHT22;57789;53.868;10.728;2023-07-20T15:36:41;19.00;99.90